Terminal Aerodrome Forecast
Issued by NWS

Home | Current Version | Previous Version | Text Only | Print | Product List | Glossary On
Versions: 1 2 3 4 5 6 7 8 9 10 11 12 13 14 15 16 17 18 19 20 21 22 23 24 25 26 27 28 29 30 31
000
FTUS42 KMHX 181859 RRA
TAFISO
TAF
KISO 181859Z 1819/1918 28006KT P6SM SCT250
     FM190300 00000KT P6SM BKN050
     FM191200 00000KT P6SM SCT025
     FM191600 11005KT P6SM BKN025
      AMD LTD TO CLD VIS AND WIND=

USA.gov is the U.S. government's official web portal to all federal, state and local government web resources and services.